Time;durP1;ratioP1;P1;durP2;ratioP2;P2;SDS_P1;SDS_P2;PMS_P1;PMS_P2;Temp;Humidity;BMP_temperature;BMP_pressure;BME280_temperature;BME280_humidity;BME280_pressure;Samples;Min_cycle;Max_cycle;Signal;HPM_P1;HPM_P2
2024/02/19 00:00:54;;;;;;;135.40;79.07;;;9.40;99.90;;;;;;5052606;28;20247;-60
2024/02/19 00:03:22;;;;;;;120.77;74.00;;;9.30;99.90;;;;;;5048263;28;20236;-59
2024/02/19 00:05:50;;;;;;;132.77;78.63;;;9.30;99.90;;;;;;5053386;28;20209;-59
2024/02/19 00:08:18;;;;;;;116.07;72.40;;;9.30;99.90;;;;;;5051156;28;20230;-59
2024/02/19 00:10:45;;;;;;;125.03;74.53;;;9.30;99.90;;;;;;5051490;28;20645;-59
2024/02/19 00:13:12;;;;;;;132.17;79.70;;;9.30;99.90;;;;;;5051393;28;20200;-59
2024/02/19 00:15:40;;;;;;;130.33;77.27;;;9.20;99.90;;;;;;5052744;28;20202;-59
2024/02/19 00:18:07;;;;;;;122.63;73.83;;;9.30;99.90;;;;;;5051619;28;20221;-59
2024/02/19 00:20:34;;;;;;;129.57;77.83;;;9.20;99.90;;;;;;5044988;28;20583;-59
2024/02/19 00:23:02;;;;;;;123.57;78.30;;;9.20;99.90;;;;;;5052489;28;20633;-59
2024/02/19 00:25:32;;;;;;;144.10;83.47;;;9.20;99.90;;;;;;5051372;28;20286;-59
2024/02/19 00:28:00;;;;;;;122.67;72.53;;;9.20;99.90;;;;;;5049990;28;20217;-59
2024/02/19 00:30:27;;;;;;;135.80;80.00;;;9.30;99.90;;;;;;5053037;28;20206;-59
2024/02/19 00:32:54;;;;;;;127.43;79.07;;;9.20;99.90;;;;;;5051542;28;20532;-59
2024/02/19 00:35:22;;;;;;;112.67;70.10;;;9.20;99.90;;;;;;5051152;28;20228;-59
2024/02/19 00:37:49;;;;;;;121.43;72.23;;;9.20;99.90;;;;;;5049177;28;20327;-59
2024/02/19 00:40:18;;;;;;;122.20;74.70;;;9.20;99.90;;;;;;5053503;28;20205;-59
2024/02/19 00:42:45;;;;;;;129.63;74.63;;;9.20;99.90;;;;;;5050456;28;20192;-59
2024/02/19 00:45:13;;;;;;;130.20;77.50;;;9.20;99.90;;;;;;5052967;28;20205;-59
2024/02/19 00:47:40;;;;;;;132.87;78.47;;;9.20;99.90;;;;;;5053000;28;20213;-59
2024/02/19 00:50:08;;;;;;;118.77;72.70;;;9.10;99.90;;;;;;5050516;28;20504;-59
2024/02/19 00:52:40;;;;;;;124.57;72.63;;;9.10;99.90;;;;;;5048964;28;20216;-60
2024/02/19 00:55:08;;;;;;;124.87;75.43;;;9.10;99.90;;;;;;5047603;28;20231;-59
2024/02/19 00:57:35;;;;;;;122.67;73.47;;;9.10;99.90;;;;;;5047593;28;20279;-59
2024/02/19 01:00:06;;;;;;;116.70;73.27;;;9.10;99.90;;;;;;5049773;28;20525;-59
2024/02/19 01:02:35;;;;;;;135.23;82.50;;;9.10;99.90;;;;;;5045803;28;20197;-59
2024/02/19 01:05:03;;;;;;;133.50;77.80;;;9.00;99.90;;;;;;5051306;28;20216;-59
2024/02/19 01:07:30;;;;;;;141.50;85.20;;;9.00;99.90;;;;;;5048424;28;20285;-59
2024/02/19 01:09:58;;;;;;;144.33;83.63;;;9.10;99.90;;;;;;5050596;28;20911;-58
2024/02/19 01:12:25;;;;;;;135.83;81.70;;;9.00;99.90;;;;;;5047819;28;20301;-58
2024/02/19 01:14:52;;;;;;;129.43;76.43;;;9.10;99.90;;;;;;5048845;28;20243;-58
2024/02/19 01:17:19;;;;;;;136.70;82.30;;;9.10;99.90;;;;;;5048008;28;20209;-58
2024/02/19 01:19:46;;;;;;;129.87;77.27;;;9.10;99.90;;;;;;5051043;28;20211;-58
2024/02/19 01:22:14;;;;;;;127.17;77.97;;;9.10;99.90;;;;;;5050875;28;20201;-58
2024/02/19 01:24:41;;;;;;;129.00;80.50;;;9.10;99.90;;;;;;5050509;28;20669;-59
2024/02/19 01:27:08;;;;;;;125.90;77.37;;;9.10;99.90;;;;;;5048495;28;20202;-59
2024/02/19 01:29:35;;;;;;;126.63;74.07;;;9.10;99.90;;;;;;5050986;28;20333;-58
2024/02/19 01:32:02;;;;;;;130.37;77.70;;;9.10;99.90;;;;;;5052076;28;20209;-59
2024/02/19 01:34:29;;;;;;;134.10;79.43;;;9.00;99.90;;;;;;5048471;28;20256;-59
2024/02/19 01:36:57;;;;;;;137.20;80.17;;;9.10;99.90;;;;;;5050937;28;20198;-59
2024/02/19 01:39:25;;;;;;;124.97;75.87;;;9.00;99.90;;;;;;5046577;28;20205;-59
2024/02/19 01:41:52;;;;;;;125.47;75.77;;;9.00;99.90;;;;;;5045619;28;20216;-58
2024/02/19 01:44:19;;;;;;;139.47;83.27;;;9.00;99.90;;;;;;5048299;28;20210;-58
2024/02/19 01:46:46;;;;;;;127.83;76.27;;;9.00;99.90;;;;;;5044300;28;20231;-58
2024/02/19 01:49:14;;;;;;;146.60;79.80;;;9.00;99.90;;;;;;5050778;28;20218;-59
2024/02/19 01:51:42;;;;;;;136.63;81.43;;;9.00;99.90;;;;;;5048580;28;20220;-58
2024/02/19 01:54:12;;;;;;;132.17;79.70;;;9.00;99.90;;;;;;5049258;28;20365;-58
2024/02/19 01:56:41;;;;;;;123.47;71.63;;;9.00;99.90;;;;;;5050826;28;20206;-59
2024/02/19 01:59:10;;;;;;;135.33;80.77;;;9.00;99.90;;;;;;5046398;28;20275;-59
2024/02/19 02:01:39;;;;;;;140.53;80.20;;;8.90;99.90;;;;;;5049130;28;20683;-58
2024/02/19 02:04:06;;;;;;;131.67;77.73;;;8.90;99.90;;;;;;5052533;28;20235;-58
2024/02/19 02:06:37;;;;;;;130.60;77.70;;;8.90;99.90;;;;;;5049941;28;20204;-59
2024/02/19 02:09:07;;;;;;;132.97;77.73;;;8.80;99.90;;;;;;5049842;28;20661;-59
2024/02/19 02:11:34;;;;;;;126.60;76.57;;;8.80;99.90;;;;;;5050618;28;20258;-59
2024/02/19 02:14:02;;;;;;;125.80;73.03;;;8.80;99.90;;;;;;5057396;28;20284;-59
2024/02/19 02:16:29;;;;;;;128.57;75.07;;;8.80;99.90;;;;;;5056616;28;20196;-59
2024/02/19 02:18:56;;;;;;;124.87;73.73;;;8.80;99.90;;;;;;5056869;28;20291;-59
2024/02/19 02:21:24;;;;;;;121.00;73.30;;;8.70;99.90;;;;;;5058482;28;20594;-59
2024/02/19 02:23:51;;;;;;;107.97;66.83;;;8.70;99.90;;;;;;5049568;28;20294;-59
2024/02/19 02:26:18;;;;;;;126.53;70.87;;;8.70;99.90;;;;;;5058008;28;20204;-59
2024/02/19 02:28:45;;;;;;;133.77;77.33;;;8.70;99.90;;;;;;5053162;28;20279;-59
2024/02/19 02:31:12;;;;;;;121.37;74.63;;;8.60;99.90;;;;;;5056828;28;20292;-59
2024/02/19 02:33:39;;;;;;;129.77;76.87;;;8.70;99.90;;;;;;5054299;28;20360;-59
2024/02/19 02:36:10;;;;;;;140.37;81.50;;;8.60;99.90;;;;;;5053953;28;20195;-59
2024/02/19 02:38:37;;;;;;;130.07;76.53;;;8.60;99.90;;;;;;5058123;28;20231;-59
2024/02/19 02:41:04;;;;;;;129.70;79.70;;;8.60;99.90;;;;;;5056117;28;20629;-59
2024/02/19 02:43:31;;;;;;;128.70;75.13;;;8.60;99.90;;;;;;5056506;28;20782;-59
2024/02/19 02:45:58;;;;;;;127.70;74.93;;;8.60;99.90;;;;;;5058373;28;20213;-59
2024/02/19 02:48:25;;;;;;;127.97;75.63;;;8.60;99.90;;;;;;5055200;28;20211;-59
2024/02/19 02:50:53;;;;;;;128.20;75.77;;;8.60;99.90;;;;;;5056998;28;20228;-59
2024/02/19 02:53:22;;;;;;;130.80;76.10;;;8.60;99.90;;;;;;5054605;28;20200;-59
2024/02/19 02:55:49;;;;;;;128.03;73.13;;;8.60;99.90;;;;;;5056669;28;20224;-59
2024/02/19 02:58:16;;;;;;;134.53;77.67;;;8.60;99.90;;;;;;5053558;28;20186;-58
2024/02/19 03:00:43;;;;;;;126.27;74.17;;;8.60;99.90;;;;;;5057136;28;20200;-59
2024/02/19 03:03:10;;;;;;;129.10;73.87;;;8.60;99.90;;;;;;5058393;28;20231;-59
2024/02/19 03:05:39;;;;;;;136.80;78.27;;;8.60;99.90;;;;;;5057394;28;20846;-59
2024/02/19 03:08:07;;;;;;;152.47;82.20;;;8.70;99.90;;;;;;5058338;28;20371;-59
2024/02/19 03:10:34;;;;;;;134.37;76.30;;;8.70;99.90;;;;;;5055374;28;20632;-59
2024/02/19 03:13:02;;;;;;;127.37;74.90;;;8.70;99.90;;;;;;5054288;28;20271;-59
2024/02/19 03:15:30;;;;;;;130.43;74.70;;;8.70;99.90;;;;;;5055647;28;20226;-59
2024/02/19 03:17:57;;;;;;;125.47;77.13;;;8.70;99.90;;;;;;5048778;28;20201;-59
2024/02/19 03:20:24;;;;;;;129.80;76.50;;;8.80;99.90;;;;;;5055068;28;20622;-59
2024/02/19 03:22:51;;;;;;;143.93;80.27;;;8.80;99.90;;;;;;5050757;28;20209;-59
2024/02/19 03:25:19;;;;;;;137.93;78.93;;;8.80;99.90;;;;;;5051244;28;20196;-59
2024/02/19 03:27:46;;;;;;;135.47;78.70;;;8.80;99.90;;;;;;5053000;28;20609;-59
2024/02/19 03:30:14;;;;;;;129.40;75.70;;;8.80;99.90;;;;;;5052287;28;20207;-59
2024/02/19 03:32:41;;;;;;;127.23;72.60;;;8.80;99.90;;;;;;5053010;28;20286;-59
2024/02/19 03:35:08;;;;;;;127.63;73.80;;;8.80;99.90;;;;;;5052616;28;20208;-59
2024/02/19 03:37:35;;;;;;;132.90;72.20;;;8.80;99.90;;;;;;5051797;28;20208;-59
2024/02/19 03:40:06;;;;;;;131.00;75.30;;;8.80;99.90;;;;;;5053895;28;20519;-59
2024/02/19 03:42:34;;;;;;;123.37;70.40;;;8.70;99.90;;;;;;5050218;28;20200;-59
2024/02/19 03:45:02;;;;;;;135.07;76.37;;;8.70;99.90;;;;;;5053099;28;20300;-59
2024/02/19 03:47:29;;;;;;;136.23;76.83;;;8.70;99.90;;;;;;5053349;28;20197;-59
2024/02/19 03:49:56;;;;;;;129.93;74.80;;;8.70;99.90;;;;;;5053610;28;20216;-59
2024/02/19 03:52:24;;;;;;;142.20;78.93;;;8.70;99.90;;;;;;5053483;28;20724;-59
2024/02/19 03:54:51;;;;;;;136.27;77.77;;;8.70;99.90;;;;;;5054171;28;20221;-59
2024/02/19 03:57:18;;;;;;;121.17;73.23;;;8.70;99.90;;;;;;5051723;28;20197;-58
2024/02/19 03:59:45;;;;;;;115.60;70.00;;;8.70;99.90;;;;;;5054976;28;20754;-59
2024/02/19 04:02:13;;;;;;;111.80;66.43;;;8.70;99.90;;;;;;5049432;28;20766;-59
2024/02/19 04:04:40;;;;;;;114.33;66.70;;;8.70;99.90;;;;;;5054216;28;20631;-59
2024/02/19 04:07:08;;;;;;;99.97;60.53;;;8.70;99.90;;;;;;5045766;28;20205;-59
2024/02/19 04:09:35;;;;;;;127.27;69.20;;;8.70;99.90;;;;;;5050785;28;20208;-59
2024/02/19 04:12:07;;;;;;;115.67;68.97;;;8.60;99.90;;;;;;5050971;28;20202;-59
2024/02/19 04:14:35;;;;;;;125.60;73.43;;;8.60;99.90;;;;;;5049248;28;20215;-58
2024/02/19 04:17:02;;;;;;;141.73;78.80;;;8.60;99.90;;;;;;5053603;28;20222;-59
2024/02/19 04:19:32;;;;;;;104.73;63.87;;;8.50;99.90;;;;;;5050795;28;20207;-59
2024/02/19 04:21:59;;;;;;;132.50;73.83;;;8.50;99.90;;;;;;5052299;28;20263;-59
2024/02/19 04:24:26;;;;;;;110.23;66.87;;;8.50;99.90;;;;;;5049885;28;20215;-59
2024/02/19 04:26:53;;;;;;;115.77;69.07;;;8.40;99.90;;;;;;5051689;28;20203;-59
2024/02/19 04:29:21;;;;;;;115.80;70.17;;;8.40;99.90;;;;;;5052091;28;20249;-59
2024/02/19 04:31:48;;;;;;;114.43;69.30;;;8.40;99.90;;;;;;5051405;28;20293;-59
2024/02/19 04:34:17;;;;;;;134.30;76.17;;;8.40;99.90;;;;;;5052279;28;20251;-59
2024/02/19 04:36:48;;;;;;;112.87;66.13;;;8.30;99.90;;;;;;5053591;28;20197;-59
2024/02/19 04:39:16;;;;;;;136.53;76.33;;;8.30;99.90;;;;;;5035434;28;20676;-59
2024/02/19 04:41:46;;;;;;;138.13;75.83;;;8.30;99.90;;;;;;5052602;28;20212;-59
2024/02/19 04:44:15;;;;;;;117.40;67.73;;;8.30;99.90;;;;;;5044199;28;20200;-59
2024/02/19 04:46:44;;;;;;;121.30;70.23;;;8.30;99.90;;;;;;5053042;28;20208;-58
2024/02/19 04:49:15;;;;;;;108.13;62.13;;;8.30;99.90;;;;;;5046720;28;20626;-58
2024/02/19 04:51:45;;;;;;;126.53;70.13;;;8.30;99.90;;;;;;5050342;28;20662;-58
2024/02/19 04:54:14;;;;;;;119.73;71.17;;;8.30;99.90;;;;;;5051209;28;20204;-58
2024/02/19 04:56:43;;;;;;;135.80;76.37;;;8.30;99.90;;;;;;5036812;28;20219;-58
2024/02/19 04:59:12;;;;;;;113.40;65.17;;;8.30;99.90;;;;;;5052842;28;20237;-59
2024/02/19 05:01:39;;;;;;;127.93;68.10;;;8.20;99.90;;;;;;5052763;28;20284;-58
2024/02/19 05:04:09;;;;;;;112.13;66.10;;;8.20;99.90;;;;;;5050454;28;20216;-59
2024/02/19 05:06:38;;;;;;;112.00;66.00;;;8.20;99.90;;;;;;5050724;28;20200;-59
2024/02/19 05:09:09;;;;;;;122.13;71.03;;;8.20;99.90;;;;;;5041121;28;20210;-59
2024/02/19 05:11:41;;;;;;;123.97;70.87;;;8.20;99.90;;;;;;5050344;28;20193;-59
2024/02/19 05:14:09;;;;;;;119.53;68.70;;;8.20;99.90;;;;;;5050420;28;20329;-59
2024/02/19 05:16:37;;;;;;;127.43;67.70;;;8.20;99.90;;;;;;5051096;28;20279;-58
2024/02/19 05:19:04;;;;;;;125.20;72.73;;;8.20;99.90;;;;;;5051692;28;20291;-59
2024/02/19 05:21:33;;;;;;;145.20;75.43;;;8.20;99.90;;;;;;5053240;28;20197;-58
2024/02/19 05:24:00;;;;;;;126.57;73.07;;;8.20;99.90;;;;;;5051985;28;20584;-59
2024/02/19 05:26:27;;;;;;;139.33;78.43;;;8.20;99.90;;;;;;5050920;28;20204;-59
2024/02/19 05:28:55;;;;;;;115.77;69.90;;;8.20;99.90;;;;;;5050758;28;20274;-58
2024/02/19 05:31:34;;;;;;;125.53;71.63;;;8.20;99.90;;;;;;5049616;28;20212;-58
2024/02/19 05:34:06;;;;;;;136.27;74.87;;;8.20;99.90;;;;;;5043368;28;20248;-58
2024/02/19 05:36:37;;;;;;;125.20;67.47;;;8.20;99.90;;;;;;5034589;28;20688;-59
2024/02/19 05:39:10;;;;;;;129.43;72.20;;;8.10;99.90;;;;;;5051284;28;20613;-59
2024/02/19 05:41:40;;;;;;;136.40;74.20;;;8.20;99.90;;;;;;5051082;28;20291;-59
2024/02/19 05:44:09;;;;;;;120.23;70.77;;;8.10;99.90;;;;;;5051588;28;20204;-59
2024/02/19 05:46:38;;;;;;;128.00;74.30;;;8.10;99.90;;;;;;5050475;28;20211;-58
2024/02/19 05:49:08;;;;;;;138.73;73.53;;;8.10;99.90;;;;;;5050843;28;20194;-59
2024/02/19 05:51:36;;;;;;;132.97;76.87;;;8.10;99.90;;;;;;5052149;28;20196;-59
2024/02/19 05:54:04;;;;;;;120.10;69.17;;;8.10;99.90;;;;;;5042850;28;20269;-59
2024/02/19 05:56:32;;;;;;;124.33;69.60;;;8.10;99.90;;;;;;5049806;28;20240;-59
2024/02/19 05:59:02;;;;;;;116.10;67.33;;;8.20;99.90;;;;;;5052276;28;20194;-59
2024/02/19 06:01:34;;;;;;;124.30;68.80;;;8.20;99.90;;;;;;5052489;28;20210;-59
2024/02/19 06:04:05;;;;;;;130.77;71.83;;;8.20;99.90;;;;;;5035863;28;20235;-59
2024/02/19 06:06:33;;;;;;;116.93;66.47;;;8.20;99.90;;;;;;5051950;28;20283;-59
2024/02/19 06:09:04;;;;;;;125.87;71.40;;;8.20;99.90;;;;;;5051930;28;20203;-59
2024/02/19 06:11:34;;;;;;;128.60;72.73;;;8.20;99.90;;;;;;5052372;28;20217;-59
2024/02/19 06:14:02;;;;;;;126.90;72.23;;;8.20;99.90;;;;;;5052478;28;20525;-59
2024/02/19 06:16:31;;;;;;;134.53;76.30;;;8.20;99.90;;;;;;5051586;28;20244;-59
2024/02/19 06:19:02;;;;;;;141.00;77.50;;;8.20;99.90;;;;;;5051704;28;20189;-59
2024/02/19 06:21:32;;;;;;;146.73;80.10;;;8.30;99.90;;;;;;5031980;28;20232;-59
2024/02/19 06:24:04;;;;;;;154.20;76.97;;;8.30;99.90;;;;;;5042826;28;20218;-58
2024/02/19 06:26:36;;;;;;;144.00;78.97;;;8.30;99.90;;;;;;5046239;28;20293;-59
2024/02/19 06:29:08;;;;;;;151.17;78.27;;;8.40;99.90;;;;;;5025354;28;20559;-59
2024/02/19 06:31:39;;;;;;;141.37;78.30;;;8.40;99.90;;;;;;5051147;28;20634;-64
2024/02/19 06:34:08;;;;;;;147.17;80.63;;;8.40;99.90;;;;;;5049790;28;20735;-59
2024/02/19 06:36:37;;;;;;;138.57;76.20;;;8.40;99.90;;;;;;5047388;28;20223;-59
2024/02/19 06:39:06;;;;;;;145.30;79.60;;;8.40;99.90;;;;;;5049530;28;20223;-58
2024/02/19 06:41:34;;;;;;;151.90;82.70;;;8.50;99.90;;;;;;5048524;28;20221;-59
2024/02/19 06:44:04;;;;;;;163.77;88.50;;;8.40;99.90;;;;;;5033799;28;20230;-59
2024/02/19 06:46:34;;;;;;;179.53;91.37;;;8.50;99.90;;;;;;5050073;28;20199;-59
2024/02/19 06:49:01;;;;;;;183.87;94.07;;;8.50;99.90;;;;;;5052061;28;20210;-59
2024/02/19 06:51:30;;;;;;;187.73;98.87;;;8.60;99.90;;;;;;5050277;28;20205;-58
2024/02/19 06:53:58;;;;;;;188.03;98.23;;;8.60;99.90;;;;;;5051600;28;20205;-58
2024/02/19 06:56:29;;;;;;;201.03;103.37;;;8.60;99.90;;;;;;5050539;28;20558;-59
2024/02/19 06:59:02;;;;;;;195.37;100.07;;;8.70;99.90;;;;;;5052830;28;20205;-59
2024/02/19 07:01:32;;;;;;;191.93;101.40;;;8.70;99.90;;;;;;5036501;28;20206;-59
2024/02/19 07:04:01;;;;;;;194.67;98.33;;;8.80;99.90;;;;;;5029810;28;20208;-59
2024/02/19 07:06:30;;;;;;;184.40;100.47;;;8.80;99.90;;;;;;5054835;28;20635;-59
2024/02/19 07:09:01;;;;;;;187.40;102.63;;;8.80;99.90;;;;;;5045547;28;20201;-59
2024/02/19 07:11:33;;;;;;;216.07;108.60;;;8.80;99.90;;;;;;5047016;28;20297;-59
2024/02/19 07:14:06;;;;;;;209.50;106.77;;;8.80;99.90;;;;;;5047283;28;20218;-59
2024/02/19 07:16:36;;;;;;;226.17;110.97;;;8.90;99.90;;;;;;5051955;28;20212;-59
2024/02/19 07:19:07;;;;;;;221.40;111.47;;;8.90;99.90;;;;;;5037743;28;20563;-59
2024/02/19 07:21:37;;;;;;;244.33;117.27;;;8.90;99.90;;;;;;5051015;28;20268;-59
2024/02/19 07:24:07;;;;;;;245.73;114.57;;;8.90;99.90;;;;;;5014782;28;20205;-59
2024/02/19 07:26:37;;;;;;;310.53;118.47;;;8.90;99.90;;;;;;5052366;28;20703;-59
2024/02/19 07:29:06;;;;;;;319.80;119.87;;;8.90;99.90;;;;;;5037334;28;20699;-59
2024/02/19 07:31:37;;;;;;;432.77;126.50;;;8.90;99.90;;;;;;5054602;28;20214;-59
2024/02/19 07:34:07;;;;;;;476.27;123.00;;;9.00;99.90;;;;;;5037707;28;20244;-59
2024/02/19 07:36:37;;;;;;;607.10;126.93;;;9.00;99.90;;;;;;5036457;28;20236;-59
2024/02/19 07:39:07;;;;;;;636.00;127.23;;;9.00;99.90;;;;;;5053978;28;20200;-59
2024/02/19 07:41:36;;;;;;;350.80;123.30;;;9.00;99.90;;;;;;5055388;28;20263;-59
2024/02/19 07:44:05;;;;;;;501.67;126.00;;;9.00;99.90;;;;;;5051944;28;20541;-59
2024/02/19 07:46:32;;;;;;;317.73;128.57;;;9.00;99.90;;;;;;5055427;28;20262;-59
2024/02/19 07:49:01;;;;;;;498.93;130.43;;;9.10;99.90;;;;;;5054866;28;20207;-59
2024/02/19 07:51:30;;;;;;;601.33;128.80;;;9.20;99.90;;;;;;5050828;28;20199;-59
2024/02/19 07:53:59;;;;;;;342.07;124.20;;;9.20;99.90;;;;;;5043428;28;20261;-59
2024/02/19 07:56:27;;;;;;;542.00;125.27;;;9.30;99.90;;;;;;5053693;28;20216;-59
2024/02/19 07:58:55;;;;;;;488.03;125.60;;;9.30;99.90;;;;;;5053309;28;20201;-59
2024/02/19 08:01:23;;;;;;;547.00;124.73;;;9.40;99.90;;;;;;5051954;28;20232;-59
2024/02/19 08:03:54;;;;;;;578.77;121.13;;;9.40;99.90;;;;;;5053538;28;20271;-59
2024/02/19 08:06:24;;;;;;;572.63;124.30;;;9.50;99.90;;;;;;5050117;28;20201;-59
2024/02/19 08:08:54;;;;;;;558.73;124.93;;;9.50;99.90;;;;;;5029963;28;20607;-59
2024/02/19 08:11:27;;;;;;;465.43;123.43;;;9.50;99.90;;;;;;5036466;28;20204;-59
2024/02/19 08:13:58;;;;;;;581.03;126.10;;;9.60;99.90;;;;;;5049487;28;20268;-58
2024/02/19 08:16:26;;;;;;;518.23;117.97;;;9.60;99.90;;;;;;5053374;28;20215;-59
2024/02/19 08:18:56;;;;;;;424.47;120.87;;;9.60;99.90;;;;;;5052583;28;20265;-59
2024/02/19 08:21:24;;;;;;;383.77;116.43;;;9.60;99.90;;;;;;5052229;28;20255;-59
2024/02/19 08:23:53;;;;;;;395.10;119.77;;;9.60;99.90;;;;;;5049444;28;20198;-59
2024/02/19 08:26:20;;;;;;;505.40;123.87;;;9.60;99.90;;;;;;5053662;28;20509;-59
2024/02/19 08:28:49;;;;;;;485.13;120.03;;;9.60;99.90;;;;;;5052820;28;20203;-59
2024/02/19 08:31:18;;;;;;;311.73;116.97;;;9.70;99.90;;;;;;5052938;28;20297;-59
2024/02/19 08:33:48;;;;;;;511.67;120.00;;;9.70;99.90;;;;;;5051764;28;20241;-59
2024/02/19 08:36:17;;;;;;;313.67;118.43;;;9.70;99.90;;;;;;5048717;28;20226;-59
2024/02/19 08:38:48;;;;;;;317.07;123.60;;;9.70;99.90;;;;;;5046211;28;20204;-59
2024/02/19 08:41:22;;;;;;;300.47;124.00;;;9.70;99.90;;;;;;5048071;28;20213;-59
2024/02/19 08:43:50;;;;;;;336.53;128.10;;;9.70;99.90;;;;;;5052640;28;20292;-59
2024/02/19 08:46:20;;;;;;;332.90;122.43;;;9.80;99.90;;;;;;5051354;28;20710;-59
2024/02/19 08:48:53;;;;;;;275.90;125.87;;;9.90;99.90;;;;;;5044320;28;20217;-59
2024/02/19 08:51:22;;;;;;;262.20;122.10;;;10.00;99.90;;;;;;5053781;28;20209;-59
2024/02/19 08:53:53;;;;;;;314.17;123.73;;;10.10;99.90;;;;;;5036589;28;20204;-59
2024/02/19 08:56:26;;;;;;;272.50;127.37;;;10.20;99.90;;;;;;5051231;28;20300;-59
2024/02/19 08:58:55;;;;;;;264.73;121.63;;;10.30;99.90;;;;;;5035057;28;20211;-59
2024/02/19 09:01:24;;;;;;;257.57;123.63;;;10.40;99.90;;;;;;5034733;28;20211;-59
2024/02/19 09:03:55;;;;;;;238.70;122.17;;;10.40;99.90;;;;;;5036900;28;20205;-59
2024/02/19 09:06:24;;;;;;;244.47;125.77;;;10.50;99.90;;;;;;5051838;28;20205;-59
2024/02/19 09:08:55;;;;;;;248.40;126.80;;;10.50;99.90;;;;;;5041152;28;20206;-59
2024/02/19 09:11:23;;;;;;;258.70;125.73;;;10.60;99.90;;;;;;5052251;28;20200;-59
2024/02/19 09:13:52;;;;;;;232.20;121.07;;;10.70;99.90;;;;;;5052045;28;20214;-59
2024/02/19 09:16:22;;;;;;;247.67;120.73;;;10.70;99.90;;;;;;5052961;28;20720;-59
2024/02/19 09:18:54;;;;;;;234.00;122.63;;;10.80;99.90;;;;;;5053154;28;20210;-59
2024/02/19 09:21:22;;;;;;;241.57;119.10;;;10.80;99.90;;;;;;5052562;28;20578;-59
2024/02/19 09:23:51;;;;;;;232.53;120.17;;;10.90;99.90;;;;;;5054155;28;20195;-59
2024/02/19 09:26:22;;;;;;;222.50;119.90;;;10.90;99.90;;;;;;5051138;28;20268;-59
2024/02/19 09:28:52;;;;;;;232.57;114.83;;;11.00;99.90;;;;;;5036447;28;20203;-59
2024/02/19 09:31:23;;;;;;;222.37;114.53;;;11.10;99.90;;;;;;5046708;28;20205;-59
2024/02/19 09:33:53;;;;;;;208.03;116.90;;;11.10;99.90;;;;;;5051010;28;20236;-59
2024/02/19 09:36:21;;;;;;;221.03;118.70;;;11.20;99.90;;;;;;5049248;28;20214;-59
2024/02/19 09:38:49;;;;;;;193.60;116.10;;;11.30;99.90;;;;;;5049500;28;20227;-59
2024/02/19 09:41:17;;;;;;;215.37;121.03;;;11.30;99.90;;;;;;5051960;28;20555;-58
2024/02/19 09:43:47;;;;;;;207.97;117.10;;;11.40;99.90;;;;;;5052302;28;20639;-59
2024/02/19 09:46:22;;;;;;;209.07;117.30;;;11.50;99.90;;;;;;5051349;28;20183;-58
2024/02/19 09:48:50;;;;;;;199.50;117.33;;;11.50;99.90;;;;;;5052128;28;20220;-58
2024/02/19 09:51:26;;;;;;;187.00;114.30;;;11.60;99.90;;;;;;5050820;28;20620;-58
2024/02/19 09:54:05;;;;;;;187.83;112.77;;;11.60;99.90;;;;;;5050597;28;20534;-59
2024/02/19 09:56:34;;;;;;;196.47;116.13;;;11.70;99.90;;;;;;5051109;28;20358;-59
2024/02/19 09:59:05;;;;;;;193.67;116.50;;;11.70;99.90;;;;;;5052641;28;20210;-58
2024/02/19 10:01:34;;;;;;;212.17;120.80;;;11.80;99.90;;;;;;5019379;28;20221;-59
2024/02/19 10:04:02;;;;;;;196.53;120.97;;;11.90;99.90;;;;;;5051534;28;20206;-59
2024/02/19 10:06:35;;;;;;;199.97;118.80;;;12.00;99.90;;;;;;5051754;28;20198;-59
2024/02/19 10:09:11;;;;;;;194.33;115.13;;;12.20;99.90;;;;;;5050315;28;20263;-59
2024/02/19 10:11:39;;;;;;;200.83;117.17;;;12.30;99.90;;;;;;5051534;28;20532;-59
2024/02/19 10:14:06;;;;;;;191.73;117.23;;;12.40;99.90;;;;;;5044315;28;20225;-58
2024/02/19 10:16:33;;;;;;;197.40;119.20;;;12.40;99.90;;;;;;5049596;28;20215;-59
2024/02/19 10:19:08;;;;;;;194.93;118.23;;;12.50;99.90;;;;;;5048478;28;20263;-59
2024/02/19 10:21:36;;;;;;;193.40;117.50;;;12.50;99.90;;;;;;5047621;28;20209;-58
2024/02/19 10:24:04;;;;;;;201.37;118.03;;;12.50;99.90;;;;;;5047639;28;20202;-59
2024/02/19 10:26:32;;;;;;;196.80;119.17;;;12.50;99.90;;;;;;5046927;28;20642;-59
2024/02/19 10:28:59;;;;;;;192.63;115.23;;;12.50;99.90;;;;;;5048461;28;20217;-58
2024/02/19 10:31:27;;;;;;;207.70;121.23;;;12.60;99.90;;;;;;5046943;28;20206;-59
2024/02/19 10:33:55;;;;;;;201.17;117.00;;;12.60;99.90;;;;;;5047632;28;20239;-59
2024/02/19 10:36:23;;;;;;;186.83;113.67;;;12.70;99.90;;;;;;5051841;28;20256;-59
2024/02/19 10:38:51;;;;;;;195.73;114.30;;;12.80;99.90;;;;;;5051533;28;20201;-59
2024/02/19 10:41:20;;;;;;;201.63;121.70;;;12.80;99.90;;;;;;5055613;28;20196;-58
2024/02/19 10:43:48;;;;;;;177.30;111.07;;;13.00;99.90;;;;;;5053272;28;20198;-58
2024/02/19 10:46:19;;;;;;;188.10;114.37;;;13.00;99.90;;;;;;5051163;28;20209;-58
2024/02/19 10:48:49;;;;;;;182.80;111.73;;;13.20;99.90;;;;;;5054794;28;20198;-59
2024/02/19 10:51:19;;;;;;;183.63;113.00;;;13.30;99.90;;;;;;5054813;28;20195;-58
2024/02/19 10:53:46;;;;;;;178.80;112.97;;;13.40;99.90;;;;;;5054271;28;20267;-58
2024/02/19 10:56:18;;;;;;;175.30;110.60;;;13.60;99.90;;;;;;5047653;28;20214;-58
2024/02/19 10:58:55;;;;;;;175.50;111.40;;;13.70;99.80;;;;;;5052466;28;20592;-58
2024/02/19 11:01:24;;;;;;;178.00;111.50;;;13.80;99.50;;;;;;5050437;28;20271;-58
2024/02/19 11:03:51;;;;;;;167.50;108.73;;;13.90;99.00;;;;;;5052733;28;20206;-59
2024/02/19 11:06:23;;;;;;;173.23;111.23;;;13.90;98.90;;;;;;5054059;28;20213;-58
2024/02/19 11:08:55;;;;;;;166.00;111.17;;;14.00;98.60;;;;;;5049493;28;20213;-59
2024/02/19 11:11:24;;;;;;;162.50;107.20;;;14.10;98.70;;;;;;5053363;28;20550;-59
2024/02/19 11:13:51;;;;;;;177.00;109.83;;;14.20;98.60;;;;;;5052786;28;20207;-58
2024/02/19 11:16:19;;;;;;;185.87;111.27;;;14.20;98.20;;;;;;5049297;28;20692;-58
2024/02/19 11:18:48;;;;;;;176.67;112.80;;;14.30;98.20;;;;;;5053731;28;20213;-58
2024/02/19 11:21:19;;;;;;;170.40;110.93;;;14.30;97.90;;;;;;5052574;28;20201;-58
2024/02/19 11:23:46;;;;;;;174.43;112.50;;;14.40;97.90;;;;;;5051990;28;20202;-58
2024/02/19 11:26:13;;;;;;;174.33;112.03;;;14.40;97.90;;;;;;5051422;28;20222;-58
2024/02/19 11:28:40;;;;;;;177.03;115.40;;;14.60;98.10;;;;;;5050818;28;20296;-58
2024/02/19 11:31:12;;;;;;;168.67;110.13;;;14.70;98.00;;;;;;5053972;28;20202;-58
2024/02/19 11:33:39;;;;;;;172.40;109.17;;;14.90;97.80;;;;;;5052932;28;20312;-58
2024/02/19 11:36:07;;;;;;;160.73;108.57;;;15.10;97.60;;;;;;5052818;28;20195;-59
2024/02/19 11:38:38;;;;;;;173.87;112.03;;;15.20;97.20;;;;;;5053538;28;20248;-58
2024/02/19 11:41:09;;;;;;;167.87;110.47;;;15.30;97.00;;;;;;5054541;28;20194;-59
2024/02/19 11:43:38;;;;;;;164.40;107.30;;;15.40;96.70;;;;;;5051585;28;20205;-58
2024/02/19 11:46:05;;;;;;;178.00;110.00;;;15.50;96.40;;;;;;5045429;28;20203;-58
2024/02/19 11:48:35;;;;;;;161.40;104.93;;;15.60;96.20;;;;;;5051139;28;20338;-59
2024/02/19 11:51:05;;;;;;;163.60;104.93;;;15.70;96.20;;;;;;5048548;28;20217;-58
2024/02/19 11:53:32;;;;;;;158.63;105.27;;;15.80;95.70;;;;;;5048024;28;20226;-59
2024/02/19 11:56:00;;;;;;;157.77;105.20;;;15.80;95.50;;;;;;5048852;28;20206;-58
2024/02/19 11:58:28;;;;;;;157.57;103.60;;;15.80;95.30;;;;;;5049449;28;20346;-58
2024/02/19 12:00:56;;;;;;;145.73;96.23;;;15.90;95.40;;;;;;5052146;28;20214;-59
2024/02/19 12:03:25;;;;;;;144.83;95.87;;;16.00;95.10;;;;;;5047635;28;20202;-58
2024/02/19 12:05:53;;;;;;;143.03;97.33;;;16.00;94.80;;;;;;5049495;28;20207;-59
2024/02/19 12:08:20;;;;;;;151.87;100.60;;;16.00;94.30;;;;;;5053253;28;20217;-59
2024/02/19 12:10:47;;;;;;;147.80;98.23;;;16.00;94.40;;;;;;5050052;28;20203;-59
2024/02/19 12:13:16;;;;;;;144.57;95.67;;;16.10;94.70;;;;;;5053084;28;20222;-58
2024/02/19 12:15:51;;;;;;;141.83;92.93;;;16.20;94.90;;;;;;5052563;28;20237;-59
2024/02/19 12:18:18;;;;;;;139.90;90.47;;;16.30;94.90;;;;;;5052117;28;20216;-58
2024/02/19 12:20:46;;;;;;;123.23;83.37;;;16.50;94.60;;;;;;5053340;28;20644;-58
2024/02/19 12:23:14;;;;;;;129.50;83.80;;;16.60;94.10;;;;;;5050726;28;20230;-58
2024/02/19 12:25:42;;;;;;;128.27;87.73;;;16.70;93.30;;;;;;5052703;28;20208;-57
2024/02/19 12:28:09;;;;;;;130.53;89.93;;;16.60;92.70;;;;;;5053937;28;20587;-58